createdAt,value
2017-04-24T00:00:11.437Z,4.90
2017-04-24T00:01:08.634Z,4.82
2017-04-24T00:02:05.818Z,4.38
2017-04-24T00:03:03.019Z,4.80
2017-04-24T00:04:00.192Z,5.07
2017-04-24T00:04:57.355Z,4.52
2017-04-24T00:05:54.514Z,4.50
2017-04-24T00:06:51.689Z,3.80
2017-04-24T00:07:48.870Z,4.88
2017-04-24T00:08:46.073Z,4.18
2017-04-24T00:09:43.959Z,5.25
2017-04-24T00:10:41.115Z,4.08
2017-04-24T00:11:38.277Z,4.60
2017-04-24T00:12:35.450Z,4.43
2017-04-24T00:13:32.938Z,4.82
2017-04-24T00:14:30.139Z,5.38
2017-04-24T00:15:27.297Z,4.97
2017-04-24T00:16:24.457Z,4.07
2017-04-24T00:17:21.631Z,4.15
2017-04-24T00:18:18.803Z,4.90
2017-04-24T00:19:16.006Z,4.50
2017-04-24T00:20:13.176Z,4.33
2017-04-24T00:21:10.343Z,4.60
2017-04-24T00:22:07.539Z,4.85
2017-04-24T00:23:04.715Z,4.28
2017-04-24T00:24:01.886Z,5.23
2017-04-24T00:24:59.078Z,4.52
2017-04-24T00:25:56.248Z,4.42
2017-04-24T00:26:53.419Z,4.70
2017-04-24T00:27:50.582Z,4.62
2017-04-24T00:28:47.751Z,4.77
2017-04-24T00:29:44.958Z,5.43
2017-04-24T00:30:42.126Z,4.30
2017-04-24T00:31:39.290Z,4.95
2017-04-24T00:32:36.458Z,5.27
2017-04-24T00:33:34.500Z,4.53
2017-04-24T00:34:31.676Z,4.68
2017-04-24T00:35:28.870Z,5.17
2017-04-24T00:36:26.037Z,4.55
2017-04-24T00:37:23.210Z,5.52
2017-04-24T00:38:20.392Z,4.55
2017-04-24T00:39:17.562Z,4.50
2017-04-24T00:40:14.766Z,5.08
2017-04-24T00:41:11.934Z,4.67
2017-04-24T00:42:09.106Z,5.40
2017-04-24T00:43:06.266Z,4.65
2017-04-24T00:44:03.427Z,4.43
2017-04-24T00:45:00.607Z,4.70
2017-04-24T00:45:57.790Z,4.75
2017-04-24T00:46:54.954Z,4.93
2017-04-24T00:47:52.119Z,4.13
2017-04-24T00:48:49.286Z,4.38
2017-04-24T00:49:46.441Z,4.22
2017-04-24T00:50:43.666Z,4.65
2017-04-24T00:51:40.834Z,4.33
2017-04-24T00:52:37.990Z,4.80
2017-04-24T00:53:35.158Z,4.15
2017-04-24T00:54:32.339Z,4.43
2017-04-24T00:55:29.505Z,5.05
2017-04-24T00:56:26.693Z,3.95
2017-04-24T00:57:23.854Z,4.50
2017-04-24T00:58:21.023Z,5.05
2017-04-24T00:59:18.191Z,4.70
2017-04-24T01:00:15.362Z,5.65
2017-04-24T01:01:12.546Z,4.83
2017-04-24T01:02:09.750Z,4.85
2017-04-24T01:03:06.914Z,5.08
2017-04-24T01:04:06.345Z,4.80
2017-04-24T01:05:03.528Z,5.40
2017-04-24T01:06:00.690Z,5.43
2017-04-24T01:06:57.866Z,5.55
2017-04-24T01:07:55.058Z,4.52
2017-04-24T01:08:52.247Z,4.45
2017-04-24T01:09:49.406Z,5.25
2017-04-24T01:10:46.572Z,4.95
2017-04-24T01:11:43.741Z,4.68
2017-04-24T01:12:40.914Z,4.42
2017-04-24T01:13:38.139Z,5.17
2017-04-24T01:14:35.305Z,4.38
2017-04-24T01:15:32.471Z,5.33
2017-04-24T01:16:29.638Z,4.78
2017-04-24T01:17:26.806Z,4.75
2017-04-24T01:18:23.962Z,5.32
2017-04-24T01:19:21.166Z,5.20
2017-04-24T01:20:18.340Z,4.68
2017-04-24T01:21:15.506Z,4.47
2017-04-24T01:22:13.014Z,4.73
2017-04-24T01:23:10.182Z,4.32
2017-04-24T01:24:07.350Z,4.67
2017-04-24T01:25:04.550Z,4.85
2017-04-24T01:26:01.732Z,4.73
2017-04-24T01:26:58.907Z,4.83
2017-04-24T01:27:56.070Z,4.58
2017-04-24T01:28:53.251Z,4.82
2017-04-24T01:29:50.425Z,4.88
2017-04-24T01:30:47.623Z,4.27
2017-04-24T01:31:44.806Z,5.55
2017-04-24T01:32:41.975Z,4.63
2017-04-24T01:33:39.147Z,5.07
2017-04-24T01:34:36.542Z,4.38
2017-04-24T01:35:33.755Z,4.90
2017-04-24T01:36:30.926Z,4.35
2017-04-24T01:37:28.098Z,4.47
2017-04-24T01:38:25.262Z,4.63
2017-04-24T01:39:22.426Z,4.28
2017-04-24T01:40:19.599Z,5.07
2017-04-24T01:41:16.800Z,4.13
2017-04-24T01:42:13.971Z,4.78
2017-04-24T01:43:11.164Z,4.78
2017-04-24T01:44:08.334Z,4.40
2017-04-24T01:45:05.511Z,4.53
2017-04-24T01:46:02.714Z,4.00
2017-04-24T01:46:59.901Z,4.33
2017-04-24T01:47:57.066Z,3.92
2017-04-24T01:48:54.242Z,3.73
2017-04-24T01:49:51.422Z,4.68
2017-04-24T01:50:48.591Z,4.32
2017-04-24T01:51:45.794Z,4.55
2017-04-24T01:52:42.971Z,4.55
2017-04-24T01:53:40.139Z,4.13
2017-04-24T01:54:37.309Z,4.33
2017-04-24T01:55:34.478Z,4.17
2017-04-24T01:56:31.694Z,4.28
2017-04-24T01:57:28.891Z,4.58
2017-04-24T01:58:26.062Z,4.13
2017-04-24T01:59:23.235Z,3.82
2017-04-24T02:00:20.435Z,5.03
2017-04-24T02:01:17.613Z,4.32
2017-04-24T02:02:14.826Z,3.95
2017-04-24T02:03:12.023Z,4.70
2017-04-24T02:04:09.211Z,4.67
2017-04-24T02:05:06.386Z,4.18
2017-04-24T02:06:03.825Z,4.38
2017-04-24T02:07:01.030Z,5.03
2017-04-24T02:07:58.231Z,4.87
2017-04-24T02:08:55.405Z,3.60
2017-04-24T02:09:52.587Z,4.08
2017-04-24T02:10:49.835Z,4.72
2017-04-24T02:11:47.002Z,4.40
2017-04-24T02:12:44.202Z,6.77
2017-04-24T02:13:41.379Z,3.73
2017-04-24T02:14:38.554Z,4.20
2017-04-24T02:15:35.730Z,4.50
2017-04-24T02:16:32.907Z,4.25
2017-04-24T02:17:30.074Z,4.20
2017-04-24T02:18:27.270Z,3.73
2017-04-24T02:19:24.455Z,5.23
2017-04-24T02:20:21.622Z,4.45
2017-04-24T02:21:18.803Z,3.95
2017-04-24T02:22:16.011Z,3.75
2017-04-24T02:23:13.178Z,4.18
2017-04-24T02:24:10.370Z,4.43
2017-04-24T02:25:07.533Z,3.70
2017-04-24T02:26:04.694Z,4.07
2017-04-24T02:27:01.858Z,3.43
2017-04-24T02:27:59.030Z,5.07
2017-04-24T02:28:56.195Z,4.73
2017-04-24T02:29:53.387Z,4.12
2017-04-24T02:30:50.558Z,3.80
2017-04-24T02:31:47.714Z,4.05
2017-04-24T02:32:44.898Z,4.07
2017-04-24T02:33:42.058Z,3.95
2017-04-24T02:34:39.231Z,4.23
2017-04-24T02:35:36.433Z,4.65
2017-04-24T02:36:33.598Z,4.07
2017-04-24T02:37:30.802Z,4.22
2017-04-24T02:38:27.970Z,5.05
2017-04-24T02:39:25.138Z,3.87
2017-04-24T02:40:22.306Z,4.18
2017-04-24T02:41:19.505Z,3.97
2017-04-24T02:42:16.674Z,4.25
2017-04-24T02:43:13.838Z,3.85
2017-04-24T02:44:10.994Z,3.95
2017-04-24T02:45:08.169Z,4.27
2017-04-24T02:46:05.335Z,3.23
2017-04-24T02:47:02.531Z,3.38
2017-04-24T02:47:59.689Z,4.18
2017-04-24T02:48:56.856Z,3.57
2017-04-24T02:49:54.018Z,4.77
2017-04-24T02:50:51.175Z,4.45
2017-04-24T02:51:48.374Z,3.85
2017-04-24T02:52:45.550Z,4.17
2017-04-24T02:53:42.725Z,4.08
2017-04-24T02:54:39.926Z,4.15
2017-04-24T02:55:37.089Z,4.12
2017-04-24T02:56:34.247Z,3.82
2017-04-24T02:57:31.438Z,5.07
2017-04-24T02:58:28.598Z,5.17
2017-04-24T02:59:25.758Z,4.40
2017-04-24T03:00:22.943Z,3.88
2017-04-24T03:01:20.118Z,4.12
2017-04-24T03:02:17.319Z,4.50
2017-04-24T03:03:14.485Z,4.45
2017-04-24T03:04:11.954Z,4.68
2017-04-24T03:05:09.127Z,4.47
2017-04-24T03:06:06.442Z,4.13
2017-04-24T03:07:03.627Z,4.97
2017-04-24T03:08:00.812Z,4.28
2017-04-24T03:08:57.979Z,5.12
2017-04-24T03:09:55.134Z,4.57
2017-04-24T03:10:52.302Z,4.65
2017-04-24T03:11:49.466Z,6.05
2017-04-24T03:12:46.670Z,4.58
2017-04-24T03:13:43.831Z,4.48
2017-04-24T03:14:40.994Z,4.45
2017-04-24T03:15:38.154Z,4.00
2017-04-24T03:16:35.319Z,4.17
2017-04-24T03:17:32.484Z,4.13
2017-04-24T03:18:29.663Z,4.37
2017-04-24T03:19:26.836Z,4.00
2017-04-24T03:20:24.235Z,4.37
2017-04-24T03:21:21.406Z,5.30
2017-04-24T03:22:18.614Z,3.85
2017-04-24T03:23:15.814Z,3.67
2017-04-24T03:24:12.998Z,4.70
2017-04-24T03:25:10.162Z,4.17
2017-04-24T03:26:07.338Z,4.68
2017-04-24T03:27:04.506Z,4.97
2017-04-24T03:28:01.680Z,4.62
2017-04-24T03:28:58.873Z,4.03
2017-04-24T03:29:56.042Z,4.35
2017-04-24T03:30:53.210Z,4.60
2017-04-24T03:31:50.400Z,4.05
2017-04-24T03:32:47.570Z,4.52
2017-04-24T03:33:44.741Z,4.62
2017-04-24T03:34:41.936Z,4.70
2017-04-24T03:35:39.109Z,4.38
2017-04-24T03:36:36.275Z,5.15
2017-04-24T03:37:33.454Z,4.05
2017-04-24T03:38:30.625Z,4.23
2017-04-24T03:39:27.795Z,4.37
2017-04-24T03:40:24.986Z,4.75
2017-04-24T03:41:22.177Z,5.37
2017-04-24T03:42:19.350Z,5.83
2017-04-24T03:43:16.539Z,4.43
2017-04-24T03:44:13.712Z,4.55
2017-04-24T03:45:10.890Z,4.57
2017-04-24T03:46:08.086Z,3.73
2017-04-24T03:47:05.262Z,5.73
2017-04-24T03:48:02.442Z,4.08
2017-04-24T03:48:59.620Z,4.65
2017-04-24T03:49:57.035Z,4.90
2017-04-24T03:50:54.214Z,4.70
2017-04-24T03:51:51.427Z,4.38
2017-04-24T03:52:48.622Z,4.93
2017-04-24T03:53:46.103Z,4.45
2017-04-24T03:54:43.274Z,5.70
2017-04-24T03:55:40.450Z,4.78
2017-04-24T03:56:37.630Z,4.82
2017-04-24T03:57:34.834Z,4.93
2017-04-24T03:58:32.066Z,4.52
2017-04-24T03:59:29.230Z,4.78
2017-04-24T04:00:26.398Z,6.55
2017-04-24T04:01:23.593Z,4.87
2017-04-24T04:02:20.762Z,5.75
2017-04-24T04:03:17.975Z,4.95
2017-04-24T04:04:15.149Z,4.75
2017-04-24T04:05:12.326Z,5.48
2017-04-24T04:06:09.506Z,5.42
2017-04-24T04:07:06.679Z,4.55
2017-04-24T04:08:03.874Z,4.57
2017-04-24T04:09:01.089Z,4.85
2017-04-24T04:09:58.279Z,5.62
2017-04-24T04:10:55.445Z,4.75
2017-04-24T04:11:52.707Z,5.50
2017-04-24T04:12:49.964Z,5.35
2017-04-24T04:13:47.210Z,4.83
2017-04-24T04:14:44.388Z,4.62
2017-04-24T04:15:41.562Z,4.75
2017-04-24T04:16:38.722Z,4.68
2017-04-24T04:17:35.897Z,5.63
2017-04-24T04:18:33.110Z,6.58
2017-04-24T04:19:30.302Z,5.18
2017-04-24T04:20:27.470Z,5.05
2017-04-24T04:21:24.638Z,5.25
2017-04-24T04:22:21.821Z,5.20
2017-04-24T04:23:18.986Z,5.23
2017-04-24T04:24:16.198Z,6.00
2017-04-24T04:25:13.358Z,5.20
2017-04-24T04:26:10.518Z,5.97
2017-04-24T04:27:07.691Z,7.62
2017-04-24T04:28:04.864Z,7.33
2017-04-24T04:29:02.073Z,6.78
2017-04-24T04:29:59.254Z,5.98
2017-04-24T04:30:56.409Z,5.05
2017-04-24T04:31:53.595Z,7.17
2017-04-24T04:32:50.763Z,6.92
2017-04-24T04:33:47.930Z,7.15
2017-04-24T04:34:45.138Z,7.00
2017-04-24T04:35:42.297Z,7.58
2017-04-24T04:36:39.458Z,7.15
2017-04-24T04:37:36.626Z,7.23
2017-04-24T04:38:33.837Z,5.88
2017-04-24T04:39:31.002Z,5.57
2017-04-24T04:40:28.211Z,6.82
2017-04-24T04:41:25.373Z,6.02
2017-04-24T04:42:22.540Z,7.58
2017-04-24T04:43:19.710Z,6.87
2017-04-24T04:44:17.140Z,6.75
2017-04-24T04:45:14.341Z,6.37
2017-04-24T04:46:11.518Z,7.67
2017-04-24T04:47:08.679Z,6.72
2017-04-24T04:48:05.855Z,6.13
2017-04-24T04:49:03.021Z,7.52
2017-04-24T04:50:00.194Z,7.35
2017-04-24T04:50:57.389Z,6.70
2017-04-24T04:51:54.842Z,6.97
2017-04-24T04:52:52.023Z,6.13
2017-04-24T04:53:49.195Z,6.80
2017-04-24T04:54:46.362Z,6.48
2017-04-24T04:55:43.540Z,7.05
2017-04-24T04:56:40.723Z,6.38
2017-04-24T04:57:37.883Z,6.75
2017-04-24T04:58:35.046Z,6.32
2017-04-24T04:59:32.224Z,6.70
2017-04-24T05:00:29.394Z,6.62
2017-04-24T05:01:26.975Z,6.10
2017-04-24T05:02:24.190Z,6.90
2017-04-24T05:03:21.439Z,7.67
2017-04-24T05:04:18.614Z,6.55
2017-04-24T05:05:15.780Z,7.23
2017-04-24T05:06:12.953Z,7.47
2017-04-24T05:07:10.126Z,7.68
2017-04-24T05:08:07.420Z,8.27
2017-04-24T05:09:05.010Z,6.53
2017-04-24T05:10:02.178Z,6.77
2017-04-24T05:10:59.347Z,8.05
2017-04-24T05:11:56.531Z,7.15
2017-04-24T05:12:53.745Z,7.22
2017-04-24T05:13:51.367Z,8.02
2017-04-24T05:14:48.544Z,6.53
2017-04-24T05:15:45.718Z,7.00
2017-04-24T05:16:42.888Z,7.13
2017-04-24T05:17:40.081Z,7.88
2017-04-24T05:18:37.254Z,7.90
2017-04-24T05:19:34.466Z,7.42
2017-04-24T05:20:31.655Z,7.05
2017-04-24T05:21:28.831Z,7.15
2017-04-24T05:22:26.043Z,7.18
2017-04-24T05:23:23.218Z,7.63
2017-04-24T05:24:20.394Z,6.77
2017-04-24T05:25:17.591Z,6.52
2017-04-24T05:26:14.766Z,7.12
2017-04-24T05:27:11.942Z,7.48
2017-04-24T05:28:09.118Z,6.82
2017-04-24T05:29:06.295Z,7.43
2017-04-24T05:30:03.497Z,6.82
2017-04-24T05:31:00.682Z,6.87
2017-04-24T05:31:57.868Z,6.78
2017-04-24T05:32:55.574Z,8.12
2017-04-24T05:33:52.769Z,7.42
2017-04-24T05:34:49.950Z,6.85
2017-04-24T05:35:47.166Z,7.93
2017-04-24T05:36:44.348Z,8.02
2017-04-24T05:37:41.535Z,9.20
2017-04-24T05:38:38.728Z,9.47
2017-04-24T05:39:35.976Z,8.27
2017-04-24T05:40:33.190Z,8.92
2017-04-24T05:41:30.366Z,7.38
2017-04-24T05:42:27.554Z,8.03
2017-04-24T05:43:24.741Z,11.05
2017-04-24T05:44:21.927Z,8.18
2017-04-24T05:45:19.115Z,9.00
2017-04-24T05:46:16.323Z,6.80
2017-04-24T05:47:13.502Z,7.78
2017-04-24T05:48:10.685Z,8.72
2017-04-24T05:49:07.862Z,8.50
2017-04-24T05:50:05.054Z,9.33
2017-04-24T05:51:02.266Z,8.48
2017-04-24T05:51:59.458Z,8.48
2017-04-24T05:52:56.642Z,7.72
2017-04-24T05:53:53.920Z,8.42
2017-04-24T05:54:51.086Z,7.77
2017-04-24T05:55:48.274Z,7.28
2017-04-24T05:56:45.775Z,8.97
2017-04-24T05:57:42.952Z,8.62
2017-04-24T05:58:40.123Z,8.37
2017-04-24T05:59:37.298Z,8.13
2017-04-24T06:00:34.471Z,8.45
2017-04-24T06:01:31.674Z,7.70
2017-04-24T06:02:28.854Z,8.13
2017-04-24T06:03:26.082Z,8.50
2017-04-24T06:04:23.282Z,8.12
2017-04-24T06:05:20.474Z,9.53
2017-04-24T06:06:17.638Z,8.23
2017-04-24T06:07:14.860Z,8.80
2017-04-24T06:08:12.042Z,9.03
2017-04-24T06:09:09.228Z,8.58
2017-04-24T06:10:06.415Z,8.53
2017-04-24T06:11:03.595Z,8.65
2017-04-24T06:12:00.782Z,8.72
2017-04-24T06:12:58.269Z,8.95
2017-04-24T06:13:55.446Z,9.18
2017-04-24T06:14:52.615Z,8.07
2017-04-24T06:15:49.786Z,8.60
2017-04-24T06:16:46.962Z,8.33
2017-04-24T06:17:44.137Z,8.60
2017-04-24T06:18:41.336Z,7.55
2017-04-24T06:19:38.522Z,8.17
2017-04-24T06:20:35.710Z,8.82
2017-04-24T06:21:32.887Z,8.63
2017-04-24T06:22:30.086Z,8.38
2017-04-24T06:23:27.291Z,8.23
2017-04-24T06:24:24.466Z,8.03
2017-04-24T06:25:21.637Z,7.45
2017-04-24T06:26:18.805Z,8.00
2017-04-24T06:27:15.985Z,9.25
2017-04-24T06:28:13.166Z,8.07
2017-04-24T06:29:10.363Z,8.25
2017-04-24T06:30:07.549Z,9.25
2017-04-24T06:31:04.722Z,8.57
2017-04-24T06:32:01.894Z,9.10
2017-04-24T06:32:59.071Z,9.15
2017-04-24T06:33:56.255Z,9.18
2017-04-24T06:34:53.464Z,8.98
2017-04-24T06:35:50.642Z,10.45
2017-04-24T06:36:47.847Z,9.30
2017-04-24T06:37:45.030Z,9.45
2017-04-24T06:38:42.210Z,9.90
2017-04-24T06:39:39.686Z,11.18
2017-04-24T06:40:36.874Z,11.07
2017-04-24T06:41:34.062Z,11.25
2017-04-24T06:42:31.246Z,10.62
2017-04-24T06:43:28.445Z,10.82
2017-04-24T06:44:25.648Z,11.53
2017-04-24T06:45:22.870Z,11.87
2017-04-24T06:46:20.056Z,11.67
2017-04-24T06:47:17.238Z,11.63
2017-04-24T06:48:14.422Z,11.67
2017-04-24T06:49:11.608Z,11.43
2017-04-24T06:50:08.846Z,11.47
2017-04-24T06:51:06.071Z,12.27
2017-04-24T06:52:03.262Z,12.80
2017-04-24T06:53:00.454Z,11.33
2017-04-24T06:53:57.634Z,13.17
2017-04-24T06:54:54.830Z,13.40
2017-04-24T06:55:52.038Z,12.67
2017-04-24T06:56:49.221Z,13.83
2017-04-24T06:57:46.403Z,12.10
2017-04-24T06:58:43.601Z,13.00
2017-04-24T06:59:41.018Z,12.82
2017-04-24T07:00:38.238Z,14.60
2017-04-24T07:01:35.425Z,12.88
2017-04-24T07:02:32.615Z,13.75
2017-04-24T07:03:29.842Z,13.60
2017-04-24T07:04:27.018Z,13.90
2017-04-24T07:05:24.197Z,14.15
2017-04-24T07:06:21.418Z,13.77
2017-04-24T07:07:18.990Z,13.48
2017-04-24T07:08:16.182Z,13.70
2017-04-24T07:09:13.363Z,13.83
2017-04-24T07:10:10.546Z,14.12
2017-04-24T07:11:07.734Z,14.35
2017-04-24T07:12:04.942Z,15.25
2017-04-24T07:13:02.112Z,14.75
2017-04-24T07:13:59.302Z,16.35
2017-04-24T07:14:56.483Z,15.45
2017-04-24T07:15:53.655Z,15.22
2017-04-24T07:16:50.874Z,15.67
2017-04-24T07:17:48.556Z,15.25
2017-04-24T07:18:45.747Z,15.15
2017-04-24T07:19:42.931Z,15.05
2017-04-24T07:20:40.126Z,14.89
2017-04-24T07:21:37.319Z,15.43
2017-04-24T07:22:34.546Z,15.53
2017-04-24T07:23:31.750Z,14.11
2017-04-24T07:24:28.938Z,15.47
2017-04-24T07:25:26.135Z,15.83
2017-04-24T07:26:23.347Z,15.53
2017-04-24T07:27:20.566Z,15.69
2017-04-24T07:28:17.750Z,15.60
2017-04-24T07:29:15.241Z,14.69
2017-04-24T07:30:12.522Z,16.31
2017-04-24T07:31:09.702Z,15.53
2017-04-24T07:32:08.208Z,15.09
2017-04-24T07:33:05.423Z,15.29
2017-04-24T07:34:02.602Z,16.53
2017-04-24T07:34:59.785Z,15.20
2017-04-24T07:35:56.978Z,15.90
2017-04-24T07:36:54.160Z,15.11
2017-04-24T07:37:51.340Z,15.20
2017-04-24T07:38:48.626Z,15.34
2017-04-24T07:39:45.805Z,14.16
2017-04-24T07:40:42.982Z,15.19
2017-04-24T07:41:40.169Z,14.77
2017-04-24T07:42:37.355Z,15.66
2017-04-24T07:43:34.786Z,14.64
2017-04-24T07:44:32.000Z,14.64
2017-04-24T07:45:29.201Z,14.31
2017-04-24T07:46:26.395Z,14.47
2017-04-24T07:47:23.586Z,13.94
2017-04-24T07:48:20.771Z,14.33
2017-04-24T07:49:18.007Z,14.56
2017-04-24T07:50:15.193Z,14.54
2017-04-24T07:51:12.380Z,14.07
2017-04-24T07:52:09.573Z,13.40
2017-04-24T07:53:06.767Z,14.34
2017-04-24T07:54:03.974Z,13.31
2017-04-24T07:55:01.419Z,13.13
2017-04-24T07:55:58.628Z,12.37
2017-04-24T07:56:55.823Z,13.20
2017-04-24T07:57:53.006Z,11.87
2017-04-24T07:58:50.192Z,12.33
2017-04-24T07:59:47.428Z,12.64
2017-04-24T08:00:44.687Z,12.76
2017-04-24T08:01:41.874Z,12.83
2017-04-24T08:02:39.061Z,12.90
2017-04-24T08:04:40.009Z,12.19
2017-04-24T08:05:37.234Z,12.03
2017-04-24T08:06:34.890Z,11.23
2017-04-24T08:07:32.079Z,12.37
2017-04-24T08:08:29.267Z,11.17
2017-04-24T08:09:26.549Z,11.61
2017-04-24T08:10:23.755Z,12.03
2017-04-24T08:11:20.963Z,12.11
2017-04-24T08:12:18.163Z,11.33
2017-04-24T08:13:15.350Z,11.21
2017-04-24T08:14:12.819Z,11.43
2017-04-24T08:15:10.010Z,11.97
2017-04-24T08:16:07.234Z,11.14
2017-04-24T08:17:04.666Z,11.39
2017-04-24T08:18:01.862Z,10.53
2017-04-24T08:18:59.046Z,10.37
2017-04-24T08:19:56.223Z,11.69
2017-04-24T08:20:53.492Z,10.70
2017-04-24T08:21:50.702Z,10.30
2017-04-24T08:22:47.898Z,11.00
2017-04-24T08:23:45.082Z,11.06
2017-04-24T08:24:42.259Z,10.76
2017-04-24T08:25:39.438Z,10.84
2017-04-24T08:26:36.659Z,10.63
2017-04-24T08:27:33.831Z,10.60
2017-04-24T08:28:31.010Z,10.74
2017-04-24T08:29:28.198Z,10.31
2017-04-24T08:30:25.370Z,9.86
2017-04-24T08:31:22.559Z,10.04
2017-04-24T08:32:19.778Z,10.51
2017-04-24T08:33:16.966Z,10.87
2017-04-24T08:34:14.150Z,9.99
2017-04-24T08:35:11.386Z,11.50
2017-04-24T08:36:08.561Z,9.70
2017-04-24T08:37:05.766Z,10.63
2017-04-24T08:38:02.971Z,9.71
2017-04-24T08:39:00.151Z,12.56
2017-04-24T08:39:57.322Z,12.91
2017-04-24T08:40:54.500Z,9.16
2017-04-24T08:41:51.682Z,9.13
2017-04-24T08:42:49.090Z,8.79
2017-04-24T08:43:46.267Z,8.80
2017-04-24T08:44:43.438Z,8.40
2017-04-24T08:45:40.614Z,8.19
2017-04-24T08:46:37.782Z,8.19
2017-04-24T08:47:35.000Z,8.80
2017-04-24T08:48:32.170Z,9.31
2017-04-24T08:49:29.340Z,8.79
2017-04-24T08:50:26.509Z,8.06
2017-04-24T08:51:23.682Z,8.89
2017-04-24T08:52:20.860Z,9.43
2017-04-24T08:53:18.061Z,9.24
2017-04-24T08:54:15.233Z,9.57
2017-04-24T08:55:12.402Z,8.53
2017-04-24T08:56:09.574Z,9.03
2017-04-24T08:57:06.755Z,8.67
2017-04-24T08:58:03.922Z,8.64
2017-04-24T08:59:01.126Z,9.80
2017-04-24T08:59:58.309Z,9.06
2017-04-24T09:00:55.895Z,8.46
2017-04-24T09:01:53.070Z,9.33
2017-04-24T09:02:50.242Z,9.21
2017-04-24T09:03:47.726Z,9.59
2017-04-24T09:04:44.902Z,8.54
2017-04-24T09:05:42.085Z,9.79
2017-04-24T09:06:39.277Z,9.09
2017-04-24T09:07:36.458Z,8.53
2017-04-24T09:08:33.631Z,8.97
2017-04-24T09:09:30.835Z,10.11
2017-04-24T09:10:28.027Z,10.14
2017-04-24T09:11:25.212Z,9.40
2017-04-24T09:12:22.382Z,9.29
2017-04-24T09:13:19.571Z,10.94
2017-04-24T09:14:16.750Z,11.19
2017-04-24T09:15:13.966Z,11.26
2017-04-24T09:16:11.150Z,10.76
2017-04-24T09:17:08.330Z,10.47
2017-04-24T09:18:05.518Z,10.17
2017-04-24T09:19:02.819Z,9.94
2017-04-24T09:20:00.003Z,10.81
2017-04-24T09:20:57.218Z,11.29
2017-04-24T09:21:54.394Z,10.51
2017-04-24T09:22:51.598Z,10.81
2017-04-24T09:23:48.790Z,10.33
2017-04-24T09:24:45.977Z,10.40
2017-04-24T09:25:43.202Z,10.34
2017-04-24T09:26:40.387Z,10.83
2017-04-24T09:27:37.573Z,9.93
2017-04-24T09:28:34.775Z,10.35
2017-04-24T09:29:31.959Z,11.06
2017-04-24T09:30:29.139Z,9.80
2017-04-24T09:31:26.343Z,10.36
2017-04-24T09:32:23.522Z,9.82
2017-04-24T09:33:20.731Z,10.49
2017-04-24T09:34:17.919Z,11.47
2017-04-24T09:35:15.109Z,10.50
2017-04-24T09:36:12.330Z,9.80
2017-04-24T09:37:09.522Z,10.74
2017-04-24T09:38:06.707Z,10.29
2017-04-24T09:39:04.145Z,11.33
2017-04-24T09:40:01.333Z,9.61
2017-04-24T09:40:58.825Z,9.77
2017-04-24T09:41:56.034Z,11.03
2017-04-24T09:42:53.220Z,11.90
2017-04-24T09:43:50.410Z,9.95
2017-04-24T09:44:47.600Z,11.50
2017-04-24T09:45:44.787Z,10.64
2017-04-24T09:46:41.993Z,11.60
2017-04-24T09:47:39.187Z,11.40
2017-04-24T09:48:36.387Z,11.87
2017-04-24T09:49:33.582Z,10.62
2017-04-24T09:50:30.802Z,10.43
2017-04-24T09:51:28.389Z,9.91
2017-04-24T09:52:25.591Z,10.89
2017-04-24T09:53:22.774Z,9.98
2017-04-24T09:54:20.883Z,10.45
2017-04-24T09:55:18.078Z,10.25
2017-04-24T09:56:15.252Z,10.17
2017-04-24T09:57:12.472Z,10.55
2017-04-24T09:58:09.670Z,10.85
2017-04-24T09:59:06.862Z,9.97
2017-04-24T10:00:04.062Z,9.84
2017-04-24T10:01:01.251Z,11.13
2017-04-24T10:01:58.476Z,10.36
2017-04-24T10:02:55.679Z,10.81
2017-04-24T10:03:52.859Z,10.09
2017-04-24T10:04:50.042Z,10.78
2017-04-24T10:05:47.237Z,11.13
2017-04-24T10:06:44.438Z,10.83
2017-04-24T10:07:41.650Z,10.98
2017-04-24T10:08:39.146Z,10.97
2017-04-24T10:09:36.335Z,10.24
2017-04-24T10:10:33.515Z,11.06
2017-04-24T10:11:30.693Z,10.59
2017-04-24T10:12:27.894Z,10.61
2017-04-24T10:13:25.083Z,10.13
2017-04-24T10:14:22.279Z,10.83
2017-04-24T10:15:19.501Z,11.40
2017-04-24T10:16:16.703Z,11.73
2017-04-24T10:17:13.929Z,11.08
2017-04-24T10:18:11.143Z,11.15
2017-04-24T10:19:08.322Z,10.82
2017-04-24T10:20:05.498Z,11.15
2017-04-24T10:21:02.671Z,11.58
2017-04-24T10:22:00.094Z,11.62
2017-04-24T10:22:57.294Z,12.78
2017-04-24T10:23:54.482Z,12.22
2017-04-24T10:24:51.663Z,11.47
2017-04-24T10:25:48.870Z,11.48
2017-04-24T10:26:46.047Z,11.75
2017-04-24T10:27:43.230Z,12.05
2017-04-24T10:28:40.433Z,11.99
2017-04-24T10:29:37.610Z,11.43
2017-04-24T10:30:34.785Z,12.84
2017-04-24T10:31:31.972Z,12.80
2017-04-24T10:32:29.158Z,14.21
2017-04-24T10:33:26.371Z,11.84
2017-04-24T10:34:23.555Z,13.29
2017-04-24T10:35:20.733Z,13.74
2017-04-24T10:36:17.925Z,12.27
2017-04-24T10:37:15.118Z,12.24
2017-04-24T10:38:12.307Z,13.49
2017-04-24T10:39:09.506Z,13.11
2017-04-24T10:40:06.706Z,12.67
2017-04-24T10:41:03.887Z,12.04
2017-04-24T10:42:01.098Z,12.86
2017-04-24T10:42:58.282Z,11.31
2017-04-24T10:43:55.503Z,12.44
2017-04-24T10:44:52.685Z,12.69
2017-04-24T10:45:49.871Z,12.23
2017-04-24T10:46:47.062Z,13.06
2017-04-24T10:47:44.246Z,12.90
2017-04-24T10:48:41.430Z,12.50
2017-04-24T10:49:38.607Z,12.26
2017-04-24T10:50:35.798Z,13.81
2017-04-24T10:51:33.135Z,13.06
2017-04-24T10:52:30.322Z,13.47
2017-04-24T10:53:27.506Z,14.67
2017-04-24T10:54:24.704Z,13.13
2017-04-24T10:55:21.883Z,12.87
2017-04-24T10:56:19.074Z,13.74
2017-04-24T10:57:16.263Z,13.22
2017-04-24T10:58:13.468Z,13.15
2017-04-24T10:59:10.695Z,14.12
2017-04-24T11:00:07.892Z,12.02
2017-04-24T11:01:05.071Z,12.65
2017-04-24T11:02:02.253Z,13.60
2017-04-24T11:02:59.494Z,12.03
2017-04-24T11:03:56.675Z,13.85
2017-04-24T11:04:53.851Z,13.63
2017-04-24T11:05:51.023Z,12.82
2017-04-24T11:06:48.194Z,12.83
2017-04-24T11:07:45.378Z,13.25
2017-04-24T11:08:42.559Z,12.25
2017-04-24T11:09:39.738Z,11.93
2017-04-24T11:10:36.931Z,12.98
2017-04-24T11:11:34.114Z,12.47
2017-04-24T11:12:31.300Z,12.48
2017-04-24T11:13:28.484Z,12.23
2017-04-24T11:14:25.663Z,13.25
2017-04-24T11:15:22.860Z,12.82
2017-04-24T11:16:20.054Z,13.27
2017-04-24T11:17:17.231Z,14.08
2017-04-24T11:18:14.404Z,12.52
2017-04-24T11:19:11.599Z,13.08
2017-04-24T11:20:08.786Z,11.22
2017-04-24T11:21:06.561Z,12.25
2017-04-24T11:22:03.746Z,12.92
2017-04-24T11:23:00.969Z,12.40
2017-04-24T11:23:58.159Z,12.30
2017-04-24T11:24:55.350Z,12.33
2017-04-24T11:25:52.547Z,12.17
2017-04-24T11:26:49.742Z,12.58
2017-04-24T11:27:46.919Z,13.50
2017-04-24T11:28:44.111Z,12.22
2017-04-24T11:29:41.311Z,12.58
2017-04-24T11:30:38.495Z,13.00
2017-04-24T11:31:35.686Z,11.88
2017-04-24T11:32:32.870Z,11.60
2017-04-24T11:33:30.051Z,11.70
2017-04-24T11:34:27.236Z,11.87
2017-04-24T11:35:24.419Z,11.02
2017-04-24T11:36:21.607Z,11.90
2017-04-24T11:37:18.789Z,11.62
2017-04-24T11:38:15.987Z,11.68
2017-04-24T11:39:13.175Z,11.10
2017-04-24T11:40:10.410Z,11.53
2017-04-24T11:41:07.605Z,11.38
2017-04-24T11:42:04.798Z,11.30
2017-04-24T11:43:01.990Z,12.03
2017-04-24T11:43:59.184Z,12.23
2017-04-24T11:44:56.410Z,12.30
2017-04-24T11:45:53.602Z,11.77
2017-04-24T11:46:50.803Z,12.12
2017-04-24T11:47:47.992Z,11.28
2017-04-24T11:48:45.194Z,13.08
2017-04-24T11:49:42.772Z,11.18
2017-04-24T11:50:39.982Z,13.08
2017-04-24T11:51:37.165Z,12.27
2017-04-24T11:52:34.351Z,13.47
2017-04-24T11:53:31.531Z,11.40
2017-04-24T11:54:28.718Z,12.00
2017-04-24T11:55:25.930Z,11.62
2017-04-24T11:56:23.110Z,13.07
2017-04-24T11:57:20.298Z,11.87
2017-04-24T11:58:17.498Z,12.35
2017-04-24T11:59:14.697Z,10.25
2017-04-24T12:00:11.893Z,10.13
2017-04-24T12:01:09.095Z,9.22
2017-04-24T12:02:06.274Z,9.82
2017-04-24T12:03:03.466Z,10.32
2017-04-24T12:04:00.654Z,10.43
2017-04-24T12:04:57.835Z,10.50
2017-04-24T12:05:55.010Z,9.70
2017-04-24T12:06:52.194Z,10.88
2017-04-24T12:07:49.380Z,8.95
2017-04-24T12:08:46.806Z,10.38
2017-04-24T12:09:44.006Z,10.18
2017-04-24T12:10:41.217Z,10.25
2017-04-24T12:11:38.415Z,9.32
2017-04-24T12:12:35.622Z,10.90
2017-04-24T12:13:32.810Z,9.93
2017-04-24T12:14:30.266Z,11.57
2017-04-24T12:15:27.478Z,10.18
2017-04-24T12:16:24.653Z,9.63
2017-04-24T12:17:22.145Z,10.15
2017-04-24T12:18:19.318Z,9.50
2017-04-24T12:19:16.523Z,11.45
2017-04-24T12:20:13.697Z,9.72
2017-04-24T12:21:10.906Z,9.07
2017-04-24T12:22:08.095Z,9.53
2017-04-24T12:23:05.346Z,10.13
2017-04-24T12:24:02.520Z,9.80
2017-04-24T12:24:59.706Z,9.82
2017-04-24T12:25:56.897Z,9.37
2017-04-24T12:26:54.102Z,9.73
2017-04-24T12:27:51.343Z,10.08
2017-04-24T12:28:48.531Z,9.32
2017-04-24T12:29:45.706Z,9.15
2017-04-24T12:30:42.898Z,9.65
2017-04-24T12:31:40.102Z,9.03
2017-04-24T12:32:42.827Z,9.25